Time;durP1;ratioP1;P1;durP2;ratioP2;P2;SDS_P1;SDS_P2;PMS_P1;PMS_P2;Temp;Humidity;BMP_temperature;BMP_pressure;BME280_temperature;BME280_humidity;BME280_pressure;Samples;Min_cycle;Max_cycle;Signal;HPM_P1;HPM_P2
2023/02/02 00:01:41;;;;;;;10.00;2.10;;;7.60;99.90;;;;;;4839201;29;20451;-67
2023/02/02 00:04:07;;;;;;;4.80;2.00;;;7.60;99.90;;;;;;4841398;29;20445;-67
2023/02/02 00:06:33;;;;;;;9.67;3.27;;;7.60;99.90;;;;;;4841499;29;20813;-67
2023/02/02 00:09:00;;;;;;;4.60;1.90;;;7.60;99.90;;;;;;4841610;29;20482;-67
2023/02/02 00:11:26;;;;;;;2.80;1.30;;;7.60;99.90;;;;;;4841146;29;20730;-67
2023/02/02 00:13:52;;;;;;;3.43;2.40;;;7.60;99.90;;;;;;4841285;29;20468;-67
2023/02/02 00:16:29;;;;;;;8.33;2.87;;;7.60;99.90;;;;;;4841051;29;20533;-67
2023/02/02 00:18:58;;;;;;;5.37;1.93;;;7.60;99.90;;;;;;4841176;29;20463;-67
2023/02/02 00:21:23;;;;;;;6.27;2.13;;;7.60;99.90;;;;;;4840011;29;20849;-67
2023/02/02 00:23:50;;;;;;;8.43;3.60;;;7.60;99.90;;;;;;4840964;29;20459;-67
2023/02/02 00:26:16;;;;;;;9.03;2.70;;;7.70;99.90;;;;;;4837324;29;20856;-67
2023/02/02 00:28:41;;;;;;;16.37;3.30;;;7.60;99.90;;;;;;4841066;29;20872;-67
2023/02/02 00:31:07;;;;;;;8.47;2.03;;;7.60;99.90;;;;;;4840765;29;20502;-67
2023/02/02 00:33:32;;;;;;;6.90;2.47;;;7.60;99.90;;;;;;4841251;29;20186;-67
2023/02/02 00:35:58;;;;;;;5.13;2.30;;;7.70;99.90;;;;;;4841241;29;20286;-66
2023/02/02 00:38:23;;;;;;;8.10;3.20;;;7.60;99.90;;;;;;4841168;29;20190;-67
2023/02/02 00:40:49;;;;;;;11.53;2.23;;;7.60;99.90;;;;;;4840932;29;20557;-67
2023/02/02 00:43:14;;;;;;;6.20;2.73;;;7.60;99.90;;;;;;4840971;29;20963;-67
2023/02/02 00:45:40;;;;;;;7.87;2.80;;;7.70;99.90;;;;;;4841219;29;20289;-67
2023/02/02 00:48:06;;;;;;;6.17;3.03;;;7.70;99.90;;;;;;4840970;29;20706;-67
2023/02/02 00:50:32;;;;;;;6.57;2.67;;;7.70;99.90;;;;;;4840943;29;20655;-67
2023/02/02 00:52:57;;;;;;;9.73;5.40;;;7.70;99.90;;;;;;4840804;29;20186;-67
2023/02/02 00:55:25;;;;;;;6.67;3.17;;;7.70;99.90;;;;;;4840809;29;20306;-68
2023/02/02 00:57:51;;;;;;;6.87;3.77;;;7.70;99.90;;;;;;4840838;29;20454;-67
2023/02/02 01:00:22;;;;;;;8.73;3.10;;;7.70;99.90;;;;;;4840739;29;20801;-67
2023/02/02 01:02:52;;;;;;;16.00;6.37;;;7.70;99.90;;;;;;4841025;29;20451;-68
2023/02/02 01:05:19;;;;;;;9.03;5.67;;;7.70;99.90;;;;;;4842524;29;20535;-68
2023/02/02 01:07:45;;;;;;;11.87;6.30;;;7.70;99.90;;;;;;4843726;29;20511;-67
2023/02/02 01:10:14;;;;;;;10.87;6.20;;;7.70;99.90;;;;;;4844618;29;20475;-67
2023/02/02 01:12:40;;;;;;;11.00;7.30;;;7.70;99.90;;;;;;4844288;29;20435;-67
2023/02/02 01:15:06;;;;;;;8.97;5.70;;;7.70;99.90;;;;;;4843927;29;20539;-68
2023/02/02 01:17:32;;;;;;;16.90;7.60;;;7.60;99.90;;;;;;4844067;29;20436;-68
2023/02/02 01:19:58;;;;;;;13.40;7.90;;;7.60;99.90;;;;;;4844408;29;20471;-68
2023/02/02 01:22:24;;;;;;;11.73;6.83;;;7.60;99.90;;;;;;4844380;29;20247;-68
2023/02/02 01:24:50;;;;;;;10.03;7.00;;;7.70;99.90;;;;;;4844257;29;20551;-67
2023/02/02 01:27:15;;;;;;;11.83;6.60;;;7.70;99.90;;;;;;4840745;29;20266;-67
2023/02/02 01:29:41;;;;;;;11.63;5.70;;;7.70;99.90;;;;;;4844173;29;20222;-67
2023/02/02 01:32:07;;;;;;;7.00;4.80;;;7.70;99.90;;;;;;4843616;29;20652;-67
2023/02/02 01:34:32;;;;;;;8.90;5.00;;;7.70;99.90;;;;;;4843984;29;20214;-67
2023/02/02 01:36:58;;;;;;;11.30;4.57;;;7.70;99.90;;;;;;4843890;29;20201;-67
2023/02/02 01:39:23;;;;;;;11.53;5.00;;;7.70;99.90;;;;;;4843824;29;20199;-68
2023/02/02 01:41:49;;;;;;;6.13;4.80;;;7.70;99.90;;;;;;4843731;29;20718;-67
2023/02/02 01:45:09;;;;;;;10.60;5.60;;;7.70;99.90;;;;;;4843719;29;20190;-67
2023/02/02 01:47:42;;;;;;;8.27;4.70;;;7.70;99.90;;;;;;4805100;29;20188;-67
2023/02/02 01:50:10;;;;;;;8.07;5.40;;;7.70;99.90;;;;;;4836963;29;20473;-68
2023/02/02 01:52:39;;;;;;;7.30;5.47;;;7.70;99.90;;;;;;4843466;29;20447;-68
2023/02/02 01:55:09;;;;;;;7.77;4.73;;;7.70;99.90;;;;;;4843364;29;20471;-68
2023/02/02 01:58:12;;;;;;;10.03;4.87;;;7.80;99.90;;;;;;4843493;29;20522;-68
2023/02/02 02:00:40;;;;;;;8.80;4.57;;;7.80;99.90;;;;;;4840691;29;20450;-69
2023/02/02 02:03:10;;;;;;;10.73;4.13;;;7.90;99.90;;;;;;4841109;29;20439;-68
2023/02/02 02:05:48;;;;;;;8.00;4.33;;;7.90;99.90;;;;;;4843481;29;20443;-68
2023/02/02 02:08:23;;;;;;;13.20;4.57;;;7.90;99.90;;;;;;4842191;29;20454;-68
2023/02/02 02:10:49;;;;;;;7.47;4.30;;;7.90;99.90;;;;;;4841808;29;20439;-68
2023/02/02 02:13:16;;;;;;;7.97;4.97;;;8.00;99.90;;;;;;4843169;29;20451;-68
2023/02/02 02:18:46;;;;;;;9.10;5.20;;;8.00;99.90;;;;;;4840498;29;20480;-68
2023/02/02 02:27:27;;;;;;;8.80;5.57;;;8.00;99.90;;;;;;4848616;29;20434;-68
2023/02/02 02:29:53;;;;;;;8.67;6.37;;;8.10;99.90;;;;;;4843087;29;20439;-68
2023/02/02 02:32:26;;;;;;;14.40;7.43;;;8.10;99.90;;;;;;4842721;29;20475;-68
2023/02/02 02:35:07;;;;;;;12.33;6.73;;;8.10;99.90;;;;;;4841615;29;20274;-68
2023/02/02 02:37:47;;;;;;;14.00;7.93;;;8.10;99.90;;;;;;4842205;29;20514;-68
2023/02/02 02:40:46;;;;;;;11.23;6.50;;;8.20;99.90;;;;;;4840102;29;20446;-68
2023/02/02 02:43:39;;;;;;;16.70;8.80;;;8.20;99.90;;;;;;4827697;29;20526;-68
2023/02/02 02:46:06;;;;;;;15.43;8.57;;;8.20;99.90;;;;;;4834802;29;20451;-67
2023/02/02 02:48:31;;;;;;;17.53;8.63;;;8.20;99.90;;;;;;4842789;29;20440;-67
2023/02/02 02:51:46;;;;;;;15.20;8.93;;;8.20;99.90;;;;;;4842468;29;20502;-67
2023/02/02 02:54:18;;;;;;;14.37;7.73;;;8.20;99.90;;;;;;4841439;29;20193;-68
2023/02/02 02:57:12;;;;;;;13.73;9.20;;;8.30;99.90;;;;;;4841985;29;20523;-67
2023/02/02 03:00:06;;;;;;;13.40;9.33;;;8.30;99.90;;;;;;4833221;29;20460;-68
2023/02/02 03:02:51;;;;;;;18.90;8.90;;;8.30;99.90;;;;;;4840934;29;20907;-68
2023/02/02 03:05:43;;;;;;;22.33;9.20;;;8.30;99.90;;;;;;4840284;29;20474;-68
2023/02/02 03:08:27;;;;;;;20.87;8.93;;;8.30;99.90;;;;;;4838387;29;20471;-67
2023/02/02 03:10:56;;;;;;;18.10;9.10;;;8.30;99.90;;;;;;4840258;29;20446;-67
2023/02/02 03:13:22;;;;;;;17.77;9.30;;;8.30;99.90;;;;;;4841188;29;20443;-67
2023/02/02 03:15:47;;;;;;;17.83;8.20;;;8.30;99.90;;;;;;4841329;29;20511;-67
2023/02/02 03:18:15;;;;;;;14.83;8.03;;;8.30;99.90;;;;;;4842360;29;20554;-67
2023/02/02 03:20:43;;;;;;;16.20;8.10;;;8.30;99.90;;;;;;4842916;29;20277;-67
2023/02/02 03:23:09;;;;;;;21.30;7.10;;;8.30;99.90;;;;;;4843069;29;20453;-67
2023/02/02 03:25:35;;;;;;;13.53;8.03;;;8.40;99.90;;;;;;4842924;29;20939;-67
2023/02/02 03:28:01;;;;;;;17.90;6.23;;;8.40;99.90;;;;;;4842521;29;20655;-67
2023/02/02 03:30:27;;;;;;;13.10;6.27;;;8.40;99.90;;;;;;4842730;29;20190;-67
2023/02/02 03:32:53;;;;;;;13.60;5.10;;;8.50;99.90;;;;;;4842512;29;20226;-67
2023/02/02 03:35:19;;;;;;;13.53;5.50;;;8.40;99.90;;;;;;4842580;29;20483;-67
2023/02/02 03:37:46;;;;;;;8.80;4.07;;;8.40;99.90;;;;;;4842681;29;20805;-67
2023/02/02 03:40:12;;;;;;;6.57;4.17;;;8.50;99.90;;;;;;4842650;29;20436;-67
2023/02/02 05:30:27;;;;;;;27.30;18.10;;;8.50;99.90;;;;;;5891682;23;20430;-73
2023/02/02 05:32:53;;;;;;;34.83;16.87;;;8.50;99.90;;;;;;4916187;29;20481;-75
2023/02/02 05:35:18;;;;;;;42.57;17.40;;;8.60;99.90;;;;;;4918537;29;20212;-83
2023/02/02 05:37:44;;;;;;;30.97;17.30;;;8.50;99.90;;;;;;4907159;29;20212;-81
2023/02/02 05:40:10;;;;;;;36.53;17.63;;;8.60;99.90;;;;;;4904299;29;20718;-76
2023/02/02 05:42:35;;;;;;;31.10;14.60;;;8.60;99.90;;;;;;4908551;29;20199;-73
2023/02/02 05:45:01;;;;;;;40.77;16.40;;;8.60;99.90;;;;;;4907467;29;21225;-75
2023/02/02 05:47:26;;;;;;;30.70;15.43;;;8.70;99.90;;;;;;4902550;29;20614;-75
2023/02/02 05:49:52;;;;;;;33.00;16.00;;;8.70;99.90;;;;;;4898147;29;20618;-75
2023/02/02 05:52:20;;;;;;;38.63;15.03;;;8.60;99.90;;;;;;4901056;29;20188;-79
2023/02/02 05:54:46;;;;;;;24.40;14.50;;;8.60;99.90;;;;;;4909490;29;20203;-79
2023/02/02 05:57:11;;;;;;;34.90;14.67;;;8.60;99.90;;;;;;4913420;29;20452;-79
2023/02/02 05:59:37;;;;;;;28.93;14.30;;;8.60;99.90;;;;;;4910285;29;20222;-78
2023/02/02 06:02:03;;;;;;;23.30;13.47;;;8.60;99.90;;;;;;4915148;29;20195;-77
2023/02/02 06:04:28;;;;;;;36.93;13.90;;;8.60;99.90;;;;;;4912812;29;20192;-79
2023/02/02 06:06:54;;;;;;;28.60;13.07;;;8.70;99.90;;;;;;4913567;29;20202;-78
2023/02/02 06:09:19;;;;;;;25.70;13.00;;;8.70;99.90;;;;;;4913032;29;20184;-75
2023/02/02 06:11:45;;;;;;;18.00;12.20;;;8.70;99.90;;;;;;4909612;29;20226;-77
2023/02/02 06:14:11;;;;;;;31.43;13.63;;;8.70;99.90;;;;;;4909720;29;20195;-76
2023/02/02 06:16:37;;;;;;;31.20;13.40;;;8.80;99.90;;;;;;4910724;29;20494;-79
2023/02/02 06:19:03;;;;;;;23.37;12.47;;;8.80;99.90;;;;;;4907814;29;20441;-80
2023/02/02 06:21:30;;;;;;;30.00;12.57;;;8.90;99.90;;;;;;4904320;29;20196;-80
2023/02/02 06:23:56;;;;;;;33.03;13.70;;;8.80;99.90;;;;;;4906406;29;20440;-81
2023/02/02 06:26:22;;;;;;;25.50;12.53;;;8.80;99.90;;;;;;4908246;29;20503;-79
2023/02/02 06:28:50;;;;;;;20.37;12.90;;;8.80;99.90;;;;;;4906588;29;20441;-83
2023/02/02 06:31:19;;;;;;;25.47;12.20;;;8.80;99.90;;;;;;4904311;29;20870;-79
2023/02/02 06:33:45;;;;;;;29.53;13.17;;;8.80;99.90;;;;;;4907190;29;20488;-80
2023/02/02 06:36:13;;;;;;;27.40;13.23;;;8.90;99.90;;;;;;4909666;29;20594;-79
2023/02/02 06:38:38;;;;;;;31.40;12.77;;;8.80;99.90;;;;;;4895257;29;21002;-78
2023/02/02 06:41:05;;;;;;;25.60;12.20;;;8.80;99.90;;;;;;4911532;29;20447;-78
2023/02/02 06:43:31;;;;;;;26.93;12.10;;;8.90;99.90;;;;;;4912015;29;20349;-78
2023/02/02 06:45:57;;;;;;;20.80;11.23;;;8.90;99.90;;;;;;4911422;29;20739;-78
2023/02/02 06:48:22;;;;;;;22.37;13.33;;;8.90;99.90;;;;;;4907736;29;20263;-78
2023/02/02 06:50:48;;;;;;;33.93;13.27;;;8.90;99.90;;;;;;4904341;29;20512;-78
2023/02/02 06:53:14;;;;;;;24.23;12.80;;;8.80;99.90;;;;;;4910652;29;20295;-78
2023/02/02 06:55:40;;;;;;;26.17;13.43;;;8.80;99.90;;;;;;4911846;29;20212;-78
2023/02/02 06:58:07;;;;;;;26.57;12.50;;;8.70;99.90;;;;;;4904439;29;20433;-77
2023/02/02 07:00:35;;;;;;;26.30;13.23;;;8.80;99.90;;;;;;4904934;29;20244;-76
2023/02/02 07:03:01;;;;;;;23.10;13.40;;;8.80;99.90;;;;;;4908366;29;20416;-75
2023/02/02 07:05:27;;;;;;;27.00;13.83;;;8.80;99.90;;;;;;4910823;29;20445;-75
2023/02/02 07:07:52;;;;;;;30.83;13.57;;;8.70;99.90;;;;;;4913703;29;20176;-74
2023/02/02 07:10:18;;;;;;;27.17;13.60;;;8.70;99.90;;;;;;4912020;29;20190;-75
2023/02/02 07:12:44;;;;;;;25.10;12.33;;;8.80;99.90;;;;;;4912825;29;20181;-75
2023/02/02 07:15:10;;;;;;;24.73;13.70;;;8.80;99.90;;;;;;4910539;29;20295;-76
2023/02/02 07:17:35;;;;;;;24.70;12.77;;;8.80;99.90;;;;;;4908649;29;20515;-75
2023/02/02 07:20:01;;;;;;;22.83;12.47;;;8.90;99.90;;;;;;4911211;29;20180;-75
2023/02/02 07:22:26;;;;;;;31.47;11.80;;;8.80;99.90;;;;;;4910794;29;20199;-80
2023/02/02 07:24:52;;;;;;;21.60;13.60;;;8.90;99.90;;;;;;4908734;29;20267;-80
2023/02/02 07:27:17;;;;;;;24.23;13.33;;;8.80;99.90;;;;;;4892315;29;20210;-79
2023/02/02 07:29:43;;;;;;;21.00;11.50;;;8.90;99.90;;;;;;4911575;29;20214;-78
2023/02/02 07:32:09;;;;;;;30.33;13.13;;;8.80;99.90;;;;;;4895733;29;20639;-81
2023/02/02 07:34:37;;;;;;;25.80;13.50;;;8.80;99.90;;;;;;4915942;29;20183;-76
2023/02/02 07:37:03;;;;;;;24.67;13.30;;;8.80;99.90;;;;;;4910339;29;20263;-77
2023/02/02 07:39:28;;;;;;;30.03;12.17;;;8.80;99.90;;;;;;4911064;29;20470;-77
2023/02/02 07:41:54;;;;;;;24.30;11.10;;;8.90;99.90;;;;;;4909599;29;20187;-77
2023/02/02 07:44:20;;;;;;;28.70;13.43;;;8.90;99.90;;;;;;4905724;29;20290;-77
2023/02/02 07:46:46;;;;;;;32.17;15.03;;;8.90;99.90;;;;;;4907492;29;20357;-77
2023/02/02 07:49:13;;;;;;;28.87;13.50;;;8.90;99.90;;;;;;4899386;29;20181;-77
2023/02/02 07:51:39;;;;;;;29.07;13.27;;;8.90;99.90;;;;;;4907458;29;20820;-77
2023/02/02 07:54:05;;;;;;;22.73;13.17;;;9.00;99.90;;;;;;4906130;29;20440;-77
2023/02/02 07:56:31;;;;;;;25.37;12.20;;;8.90;99.90;;;;;;4909097;29;21005;-76
2023/02/02 07:58:57;;;;;;;33.00;13.80;;;9.00;99.90;;;;;;4907387;29;20433;-75
2023/02/02 08:01:24;;;;;;;22.10;13.80;;;8.90;99.90;;;;;;4909280;29;20251;-75
2023/02/02 08:03:52;;;;;;;25.73;12.80;;;9.00;99.90;;;;;;4913724;29;20942;-79
2023/02/02 08:06:19;;;;;;;30.40;13.77;;;9.00;99.90;;;;;;4912060;29;20439;-76
2023/02/02 08:08:46;;;;;;;21.57;12.10;;;9.00;99.90;;;;;;4913859;29;20435;-76
2023/02/02 08:11:14;;;;;;;21.53;11.20;;;8.90;99.90;;;;;;4911547;29;20429;-75
2023/02/02 08:13:40;;;;;;;25.07;13.30;;;9.00;99.90;;;;;;4903210;29;20443;-75
2023/02/02 08:16:07;;;;;;;26.23;13.00;;;9.10;99.90;;;;;;4901351;29;20917;-75
2023/02/02 08:18:33;;;;;;;32.17;13.53;;;9.10;99.90;;;;;;4896651;29;20527;-75
2023/02/02 08:21:00;;;;;;;29.23;14.30;;;9.00;99.90;;;;;;4906884;29;20435;-75
2023/02/02 08:23:27;;;;;;;21.37;12.67;;;9.00;99.90;;;;;;4896181;29;20492;-75
2023/02/02 08:25:53;;;;;;;34.00;14.17;;;9.00;99.90;;;;;;4904834;29;20927;-75
2023/02/02 08:28:19;;;;;;;24.43;13.60;;;9.00;99.90;;;;;;4911280;29;20792;-77
2023/02/02 08:30:44;;;;;;;23.00;14.20;;;9.00;99.90;;;;;;4910132;29;20467;-77
2023/02/02 08:33:12;;;;;;;23.27;13.90;;;9.00;99.90;;;;;;4910989;29;20199;-74
2023/02/02 08:35:41;;;;;;;25.57;13.23;;;8.90;99.90;;;;;;4912203;29;20709;-74
2023/02/02 08:38:07;;;;;;;24.80;13.73;;;8.90;99.90;;;;;;4904926;29;20866;-72
2023/02/02 08:40:33;;;;;;;23.37;14.40;;;9.00;99.90;;;;;;4908946;29;20446;-75
2023/02/02 08:42:58;;;;;;;26.33;12.30;;;8.90;99.90;;;;;;4904501;29;20184;-80
2023/02/02 08:45:24;;;;;;;20.27;11.70;;;9.00;99.90;;;;;;4909403;29;20663;-76
2023/02/02 08:47:50;;;;;;;24.30;13.73;;;9.00;99.90;;;;;;4908532;29;20184;-74
2023/02/02 08:50:16;;;;;;;18.20;12.77;;;9.00;99.90;;;;;;4896806;29;20183;-76
2023/02/02 08:52:42;;;;;;;26.87;13.70;;;9.00;99.90;;;;;;4910490;29;20180;-77
2023/02/02 08:55:08;;;;;;;26.50;13.33;;;9.00;99.90;;;;;;4912397;29;20468;-73
2023/02/02 08:57:33;;;;;;;19.57;13.80;;;9.00;99.90;;;;;;4910255;29;20194;-74
2023/02/02 08:59:59;;;;;;;25.87;14.60;;;9.00;99.90;;;;;;4909689;29;20275;-75
2023/02/02 09:02:24;;;;;;;23.80;13.87;;;9.00;99.90;;;;;;4905674;29;20719;-80
2023/02/02 09:04:50;;;;;;;20.03;13.33;;;9.00;99.90;;;;;;4911372;29;20248;-83
2023/02/02 09:07:16;;;;;;;25.83;13.57;;;9.00;99.90;;;;;;4911874;29;20187;-74
2023/02/02 09:09:41;;;;;;;15.30;13.33;;;9.10;99.90;;;;;;4905194;29;20200;-73
2023/02/02 09:12:07;;;;;;;21.37;13.07;;;9.00;99.90;;;;;;4906407;29;20268;-74
2023/02/02 09:14:32;;;;;;;19.67;12.27;;;9.00;99.90;;;;;;4907178;29;20188;-75
2023/02/02 09:16:58;;;;;;;19.30;13.37;;;9.10;99.90;;;;;;4900188;29;20259;-74
2023/02/02 09:19:23;;;;;;;24.30;12.00;;;8.90;99.90;;;;;;4911022;29;20184;-76
2023/02/02 09:21:49;;;;;;;20.60;12.27;;;9.10;99.90;;;;;;4908202;29;20215;-79
2023/02/02 09:24:15;;;;;;;16.10;12.03;;;9.10;99.90;;;;;;4907482;29;20543;-75
2023/02/02 09:26:42;;;;;;;15.60;11.93;;;9.10;99.90;;;;;;4900793;29;20482;-75
2023/02/02 09:29:12;;;;;;;25.57;12.23;;;9.10;99.90;;;;;;4897937;29;20448;-74
2023/02/02 09:31:38;;;;;;;16.70;11.80;;;9.00;99.90;;;;;;4907045;29;20460;-74
2023/02/02 09:34:09;;;;;;;20.53;12.00;;;9.10;99.90;;;;;;4913762;29;20450;-75
2023/02/02 09:36:35;;;;;;;14.30;9.83;;;9.10;99.90;;;;;;4913159;29;20261;-76
2023/02/02 09:39:02;;;;;;;22.93;9.63;;;9.10;99.90;;;;;;4904844;29;20436;-75
2023/02/02 09:41:36;;;;;;;14.50;11.03;;;9.20;99.90;;;;;;4906097;29;20450;-80
2023/02/02 09:44:36;;;;;;;10.60;8.80;;;9.20;99.90;;;;;;4903055;29;20795;-74
2023/02/02 09:47:18;;;;;;;11.97;8.70;;;9.00;99.90;;;;;;4911381;29;20438;-74
2023/02/02 09:50:04;;;;;;;13.30;8.93;;;9.10;99.90;;;;;;4910645;29;20435;-76
2023/02/02 09:52:57;;;;;;;11.50;8.90;;;9.10;99.90;;;;;;4909118;29;20431;-75
2023/02/02 09:55:50;;;;;;;12.97;9.53;;;9.20;99.90;;;;;;4910230;29;20838;-74
2023/02/02 09:58:20;;;;;;;20.67;9.87;;;9.20;99.90;;;;;;4911204;29;20443;-74
2023/02/02 10:00:51;;;;;;;14.17;10.60;;;9.20;99.90;;;;;;4911133;29;20507;-74
2023/02/02 10:03:44;;;;;;;12.90;8.70;;;9.20;99.90;;;;;;4914444;29;20490;-77
2023/02/02 10:06:37;;;;;;;15.40;9.10;;;9.20;99.90;;;;;;4910658;29;20438;-75
2023/02/02 10:09:18;;;;;;;12.97;9.40;;;9.30;99.90;;;;;;4907479;29;20460;-75
2023/02/02 10:12:23;;;;;;;11.00;9.70;;;9.20;99.90;;;;;;4912156;29;20432;-73
2023/02/02 10:14:57;;;;;;;12.23;10.17;;;9.30;99.90;;;;;;4907916;29;20446;-75
2023/02/02 10:17:46;;;;;;;10.23;8.67;;;9.30;99.90;;;;;;4908525;29;20445;-75
2023/02/02 10:20:25;;;;;;;15.07;10.43;;;9.30;99.90;;;;;;4910906;29;20933;-77
2023/02/02 10:22:54;;;;;;;12.70;9.57;;;9.30;99.90;;;;;;4907237;29;20507;-75
2023/02/02 10:25:25;;;;;;;13.70;9.47;;;9.30;99.90;;;;;;4911121;29;20436;-76
2023/02/02 10:28:17;;;;;;;23.87;11.53;;;9.20;99.90;;;;;;4903139;29;20429;-75
2023/02/02 10:30:59;;;;;;;13.03;8.80;;;9.30;99.90;;;;;;4911967;29;20482;-73
2023/02/02 10:33:37;;;;;;;15.63;10.63;;;9.20;99.90;;;;;;4910304;29;20576;-73
2023/02/02 10:36:25;;;;;;;18.00;11.57;;;9.20;99.90;;;;;;4913281;29;20487;-73
2023/02/02 10:39:27;;;;;;;13.33;10.30;;;9.20;99.90;;;;;;4913464;29;20494;-73
2023/02/02 10:42:32;;;;;;;18.53;13.40;;;9.20;99.90;;;;;;4904851;29;20447;-76
2023/02/02 10:45:07;;;;;;;23.10;11.20;;;9.10;99.90;;;;;;4915289;29;20774;-76
2023/02/02 10:47:33;;;;;;;16.80;12.13;;;9.10;99.90;;;;;;4907162;29;20439;-75
2023/02/02 10:50:11;;;;;;;19.07;12.83;;;9.20;99.90;;;;;;4909534;29;20546;-77
2023/02/02 10:52:39;;;;;;;22.10;12.90;;;9.30;99.90;;;;;;4904241;29;20460;-75
2023/02/02 10:55:13;;;;;;;18.73;13.17;;;9.20;99.90;;;;;;4902600;29;20968;-78
2023/02/02 10:57:45;;;;;;;25.93;13.00;;;9.30;99.90;;;;;;4899818;29;20532;-75
2023/02/02 11:00:33;;;;;;;21.87;14.50;;;9.30;99.90;;;;;;4910489;29;20435;-77
2023/02/02 11:03:03;;;;;;;22.50;13.90;;;9.30;99.90;;;;;;4909055;29;20812;-78
2023/02/02 11:08:20;;;;;;;22.67;13.40;;;9.40;99.90;;;;;;4914137;29;20459;-74
2023/02/02 11:10:50;;;;;;;20.57;15.00;;;9.40;99.90;;;;;;4914201;29;20448;-76
2023/02/02 11:13:31;;;;;;;18.13;13.80;;;9.40;99.90;;;;;;4913757;29;20764;-75
2023/02/02 11:16:14;;;;;;;26.73;15.70;;;9.40;99.90;;;;;;4913940;29;20487;-76
2023/02/02 11:18:42;;;;;;;19.00;15.10;;;9.30;99.90;;;;;;4914652;29;20425;-74
2023/02/02 11:21:26;;;;;;;26.50;16.50;;;9.40;99.90;;;;;;4913742;29;20431;-75
2023/02/02 11:24:13;;;;;;;18.80;12.60;;;9.40;99.90;;;;;;4911529;29;20436;-76
2023/02/02 11:26:46;;;;;;;21.47;14.27;;;9.50;99.90;;;;;;4911803;29;20503;-75
2023/02/02 11:29:15;;;;;;;26.30;14.57;;;9.50;99.90;;;;;;4907472;29;20433;-76
2023/02/02 11:31:41;;;;;;;25.83;14.87;;;9.40;99.90;;;;;;4909412;29;20489;-75
2023/02/02 11:34:17;;;;;;;20.93;14.23;;;9.40;99.90;;;;;;4911211;29;20432;-75
2023/02/02 11:36:58;;;;;;;19.50;14.70;;;9.50;99.90;;;;;;4911720;29;20279;-75
2023/02/02 11:39:25;;;;;;;23.00;13.47;;;9.40;99.90;;;;;;4914428;29;20431;-76
2023/02/02 11:41:56;;;;;;;25.87;12.90;;;9.40;99.90;;;;;;4914148;29;20443;-76
2023/02/02 11:44:27;;;;;;;30.57;13.30;;;9.40;99.90;;;;;;4914935;29;20880;-75
2023/02/02 11:46:55;;;;;;;17.30;13.10;;;9.40;99.90;;;;;;4913471;29;20491;-75
2023/02/02 11:49:21;;;;;;;22.83;13.67;;;9.40;99.90;;;;;;4912328;29;20491;-77
2023/02/02 11:52:00;;;;;;;17.73;12.30;;;9.40;99.90;;;;;;4912897;29;20436;-76
2023/02/02 11:54:30;;;;;;;25.57;12.97;;;9.40;99.90;;;;;;4909335;29;20436;-75
2023/02/02 11:57:02;;;;;;;23.43;12.50;;;9.50;99.90;;;;;;4908229;29;20475;-75
2023/02/02 11:59:42;;;;;;;21.07;12.27;;;9.50;99.90;;;;;;4908660;29;20456;-75
2023/02/02 12:02:29;;;;;;;20.23;13.30;;;9.50;99.90;;;;;;4910993;29;20450;-77
2023/02/02 12:05:13;;;;;;;27.73;12.17;;;9.40;99.90;;;;;;4912404;29;20991;-77
2023/02/02 12:07:41;;;;;;;24.90;13.30;;;9.50;99.90;;;;;;4914180;29;20504;-76
2023/02/02 12:10:18;;;;;;;23.77;13.03;;;9.60;99.90;;;;;;4913765;29;20428;-76
2023/02/02 12:13:09;;;;;;;18.40;11.80;;;9.50;99.90;;;;;;4913432;29;20499;-77
2023/02/02 12:15:57;;;;;;;19.00;11.83;;;9.50;99.90;;;;;;4904515;29;20507;-73
2023/02/02 12:18:56;;;;;;;26.17;13.20;;;9.50;99.90;;;;;;4901635;29;20807;-72
2023/02/02 12:21:34;;;;;;;22.80;11.43;;;9.80;99.90;;;;;;4901206;29;20456;-72
2023/02/02 12:24:28;;;;;;;18.17;11.20;;;10.30;99.90;;;;;;4907452;29;20421;-72
2023/02/02 12:26:57;;;;;;;22.90;10.07;;;10.40;99.90;;;;;;4908099;29;20444;-72
2023/02/02 12:29:36;;;;;;;17.03;8.87;;;10.60;99.90;;;;;;4912483;29;20432;-72
2023/02/02 12:32:23;;;;;;;19.00;9.70;;;10.80;99.90;;;;;;4912958;29;20555;-81
2023/02/02 12:35:14;;;;;;;23.90;9.67;;;10.50;99.90;;;;;;4913139;29;20444;-79
2023/02/02 12:38:13;;;;;;;16.97;9.73;;;10.30;99.90;;;;;;4910004;29;20444;-79
2023/02/02 12:41:01;;;;;;;18.70;10.87;;;10.10;99.90;;;;;;4912876;29;20530;-79
2023/02/02 12:43:40;;;;;;;20.50;11.23;;;10.00;99.90;;;;;;4913840;29;20446;-81
2023/02/02 12:46:31;;;;;;;15.23;9.90;;;9.90;99.90;;;;;;4895610;29;21003;-78
2023/02/02 12:49:35;;;;;;;24.80;12.20;;;9.90;99.90;;;;;;4909358;29;20444;-79
2023/02/02 12:52:07;;;;;;;20.93;10.63;;;9.80;99.90;;;;;;4855019;29;20442;-81
2023/02/02 12:54:56;;;;;;;14.13;9.50;;;9.80;99.90;;;;;;4854958;29;20470;-82
2023/02/02 12:57:45;;;;;;;19.97;10.13;;;9.70;99.90;;;;;;4889518;29;20451;-78
2023/02/02 13:00:14;;;;;;;13.50;9.17;;;9.70;99.90;;;;;;4910903;29;20436;-82
2023/02/02 13:02:50;;;;;;;19.50;10.47;;;9.60;99.90;;;;;;4916685;29;20454;-78
2023/02/02 13:05:43;;;;;;;15.97;10.10;;;9.60;99.90;;;;;;4917004;29;20435;-76
2023/02/02 13:08:13;;;;;;;24.00;9.80;;;9.60;99.90;;;;;;4895332;29;20486;-77
2023/02/02 13:10:51;;;;;;;18.33;11.50;;;9.60;99.90;;;;;;4914576;29;20436;-78
2023/02/02 13:13:19;;;;;;;20.50;10.53;;;9.70;99.90;;;;;;4915709;29;20519;-77
2023/02/02 13:15:48;;;;;;;16.07;9.67;;;9.70;99.90;;;;;;4913151;29;20494;-75
2023/02/02 13:18:18;;;;;;;19.70;11.60;;;9.60;99.90;;;;;;4911287;29;20440;-77
2023/02/02 13:20:48;;;;;;;19.83;11.30;;;9.60;99.90;;;;;;4913143;29;20584;-76
2023/02/02 13:23:24;;;;;;;22.33;11.23;;;9.60;99.90;;;;;;4914647;29;20519;-77
2023/02/02 13:26:00;;;;;;;19.00;12.57;;;9.50;99.90;;;;;;4916664;29;20436;-75
2023/02/02 13:29:09;;;;;;;22.63;13.33;;;9.50;99.90;;;;;;4916950;29;20430;-72
2023/02/02 13:31:39;;;;;;;30.47;12.67;;;9.60;99.90;;;;;;4857747;29;20491;-75
2023/02/02 13:34:25;;;;;;;19.70;14.27;;;9.60;99.90;;;;;;4917307;29;20450;-78
2023/02/02 13:36:58;;;;;;;26.93;14.43;;;9.60;99.90;;;;;;4913789;29;20470;-75
2023/02/02 13:39:42;;;;;;;24.17;15.00;;;9.50;99.90;;;;;;4915856;29;20424;-79
2023/02/02 13:42:25;;;;;;;24.27;15.87;;;9.60;99.90;;;;;;4912361;29;20436;-76
2023/02/02 13:44:59;;;;;;;28.37;16.90;;;9.60;99.90;;;;;;4907610;29;20483;-75
2023/02/02 13:47:41;;;;;;;34.67;16.47;;;9.50;99.90;;;;;;4903081;29;21332;-80
2023/02/02 13:50:15;;;;;;;29.70;16.30;;;9.50;99.90;;;;;;4910552;29;20736;-80
2023/02/02 13:53:07;;;;;;;24.13;16.30;;;9.60;99.90;;;;;;4903822;29;20451;-76
2023/02/02 13:56:02;;;;;;;27.83;15.93;;;9.60;99.90;;;;;;4908333;29;20495;-75
2023/02/02 13:58:49;;;;;;;37.10;16.50;;;9.60;99.90;;;;;;4905764;29;20452;-75
2023/02/02 14:01:16;;;;;;;29.67;17.33;;;9.50;99.90;;;;;;4902825;29;21262;-74
2023/02/02 14:03:49;;;;;;;34.60;18.10;;;9.50;99.90;;;;;;4902786;29;20435;-74
2023/02/02 14:06:18;;;;;;;28.10;17.90;;;9.50;99.90;;;;;;4904015;29;20850;-74
2023/02/02 14:08:48;;;;;;;29.53;16.70;;;9.50;99.90;;;;;;4901970;29;20451;-74
2023/02/02 14:11:25;;;;;;;26.67;15.77;;;9.50;99.90;;;;;;4902239;29;20436;-74
2023/02/02 14:16:38;;;;;;;26.80;15.60;;;9.50;99.90;;;;;;4902730;29;20526;-75
2023/02/02 14:19:13;;;;;;;26.23;17.57;;;9.50;99.90;;;;;;4901548;29;21106;-76
2023/02/02 14:21:38;;;;;;;28.97;15.60;;;9.60;99.90;;;;;;4908856;29;20195;-75
2023/02/02 14:24:23;;;;;;;27.47;16.90;;;9.60;99.90;;;;;;4915467;29;20431;-78
2023/02/02 14:26:51;;;;;;;28.13;17.73;;;9.60;99.90;;;;;;4914512;29;20263;-76
2023/02/02 14:29:30;;;;;;;29.87;17.00;;;9.60;99.90;;;;;;4914787;29;20472;-75
2023/02/02 14:32:23;;;;;;;34.97;18.20;;;9.50;99.90;;;;;;4914565;29;20468;-75
2023/02/02 14:35:09;;;;;;;32.87;17.70;;;9.50;99.90;;;;;;4913224;29;20444;-76
2023/02/02 14:37:45;;;;;;;26.23;18.03;;;9.60;99.90;;;;;;4900422;29;20607;-76
2023/02/02 14:40:29;;;;;;;29.63;17.00;;;9.60;99.90;;;;;;4911432;29;20495;-75
2023/02/02 14:46:14;;;;;;;30.73;16.77;;;9.60;99.90;;;;;;4912196;29;20572;-76
2023/02/02 14:48:46;;;;;;;25.40;13.73;;;9.70;99.90;;;;;;4913843;29;20436;-76
2023/02/02 14:51:16;;;;;;;29.77;15.83;;;9.70;99.90;;;;;;4913745;29;20435;-75
2023/02/02 14:53:52;;;;;;;36.13;15.07;;;9.70;99.90;;;;;;4914909;29;20470;-76
2023/02/02 14:56:18;;;;;;;22.73;14.57;;;9.60;99.90;;;;;;4913699;29;20835;-76
2023/02/02 14:58:45;;;;;;;24.37;14.07;;;9.60;99.90;;;;;;4913319;29;20443;-75
2023/02/02 15:01:12;;;;;;;19.83;13.87;;;9.60;99.90;;;;;;4914027;29;20494;-75
2023/02/02 15:04:15;;;;;;;24.30;14.77;;;9.60;99.90;;;;;;4911654;29;21029;-76
2023/02/02 15:06:42;;;;;;;28.53;14.37;;;9.60;99.90;;;;;;4909436;29;20439;-75
2023/02/02 15:09:19;;;;;;;22.43;15.10;;;9.60;99.90;;;;;;4910551;29;20443;-74
2023/02/02 15:12:03;;;;;;;19.87;13.80;;;9.40;99.90;;;;;;4911207;29;20839;-78
2023/02/02 15:14:34;;;;;;;23.03;14.83;;;9.40;99.90;;;;;;4913615;29;20451;-75